Time;durP1;ratioP1;P1;durP2;ratioP2;P2;SDS_P1;SDS_P2;PMS_P1;PMS_P2;Temp;Humidity;BMP_temperature;BMP_pressure;BME280_temperature;BME280_humidity;BME280_pressure;Samples;Min_cycle;Max_cycle;Signal;HPM_P1;HPM_P2
2023/02/13 00:01:26;;;;;;;6.97;4.60;;;0.00;95.30;;;;;;5012893;28;20188;-72
2023/02/13 00:03:52;;;;;;;4.13;3.77;;;-0.10;95.60;;;;;;5004478;28;20208;-72
2023/02/13 00:06:17;;;;;;;4.07;3.47;;;-0.10;95.60;;;;;;5004698;28;20983;-72
2023/02/13 00:08:43;;;;;;;10.27;3.70;;;-0.10;95.10;;;;;;5011347;28;20216;-72
2023/02/13 00:11:09;;;;;;;7.20;3.27;;;-0.10;94.80;;;;;;5008447;28;20692;-72
2023/02/13 00:13:34;;;;;;;5.27;3.30;;;0.00;94.50;;;;;;5008542;28;20662;-71
2023/02/13 00:16:02;;;;;;;5.40;3.83;;;0.00;94.60;;;;;;5008466;28;20187;-72
2023/02/13 00:18:29;;;;;;;6.67;4.40;;;0.10;95.00;;;;;;4996617;28;20570;-72
2023/02/13 00:21:04;;;;;;;5.90;3.97;;;0.10;94.80;;;;;;5013774;28;20573;-72
2023/02/13 00:23:31;;;;;;;4.10;3.40;;;0.10;94.40;;;;;;5006867;28;20284;-72
2023/02/13 00:25:58;;;;;;;8.33;3.87;;;0.20;94.20;;;;;;5013220;28;20574;-72
2023/02/13 00:28:24;;;;;;;5.77;4.10;;;0.30;94.40;;;;;;5019994;28;20568;-72
2023/02/13 00:30:50;;;;;;;8.37;4.00;;;0.30;94.50;;;;;;5018981;28;20219;-72
2023/02/13 00:33:15;;;;;;;5.23;3.13;;;0.30;94.50;;;;;;5007788;28;20743;-72
2023/02/13 00:35:41;;;;;;;6.23;4.20;;;0.30;94.30;;;;;;5004662;28;20268;-72
2023/02/13 00:38:06;;;;;;;6.10;4.00;;;0.30;94.10;;;;;;5010729;28;20649;-72
2023/02/13 00:40:32;;;;;;;6.23;5.10;;;0.40;94.00;;;;;;5013120;28;20597;-71
2023/02/13 00:42:58;;;;;;;7.13;3.97;;;0.30;94.20;;;;;;5007890;28;20894;-72
2023/02/13 00:45:24;;;;;;;4.43;3.60;;;0.30;94.30;;;;;;5007530;28;20208;-72
2023/02/13 00:47:49;;;;;;;4.77;3.90;;;0.30;94.70;;;;;;5007961;28;20204;-72
2023/02/13 00:50:15;;;;;;;10.77;3.97;;;0.30;95.00;;;;;;5005824;28;20249;-72
2023/02/13 00:52:41;;;;;;;6.77;3.50;;;0.20;95.00;;;;;;5007457;28;20224;-72
2023/02/13 00:55:06;;;;;;;6.77;4.43;;;0.20;94.70;;;;;;5013237;28;20204;-72
2023/02/13 00:57:32;;;;;;;8.87;3.63;;;0.30;94.60;;;;;;5007444;28;20185;-72
2023/02/13 00:59:58;;;;;;;9.00;4.23;;;0.30;94.40;;;;;;5006596;28;20255;-72
2023/02/13 01:02:24;;;;;;;6.20;4.33;;;0.30;93.90;;;;;;5013996;28;20188;-72
2023/02/13 01:04:50;;;;;;;7.77;4.87;;;0.30;94.40;;;;;;5007661;28;20251;-72
2023/02/13 01:07:16;;;;;;;4.47;2.70;;;0.40;94.20;;;;;;5006091;28;20697;-72
2023/02/13 01:09:41;;;;;;;4.10;3.53;;;0.40;93.60;;;;;;5007061;28;20235;-72
2023/02/13 01:12:07;;;;;;;5.30;3.57;;;0.50;94.10;;;;;;5006194;28;20177;-72
2023/02/13 01:14:33;;;;;;;7.60;3.93;;;0.50;93.80;;;;;;5009502;28;20180;-72
2023/02/13 01:16:58;;;;;;;4.93;4.07;;;0.50;93.70;;;;;;5012431;28;20191;-72
2023/02/13 01:19:24;;;;;;;8.57;3.67;;;0.50;94.10;;;;;;5005485;28;20181;-72
2023/02/13 01:21:50;;;;;;;4.83;4.13;;;0.50;94.10;;;;;;5006793;28;20208;-72
2023/02/13 01:24:16;;;;;;;7.47;3.47;;;0.50;93.80;;;;;;5006325;28;20693;-72
2023/02/13 01:26:42;;;;;;;5.70;4.03;;;0.60;94.20;;;;;;5005496;28;20177;-72
2023/02/13 01:29:11;;;;;;;3.43;2.57;;;0.70;93.60;;;;;;5005399;28;20219;-72
2023/02/13 01:31:36;;;;;;;5.07;4.07;;;0.70;93.40;;;;;;5010156;28;20181;-72
2023/02/13 01:34:02;;;;;;;5.13;3.63;;;0.80;93.20;;;;;;5006484;28;20184;-72
2023/02/13 01:36:28;;;;;;;7.10;3.70;;;0.80;93.10;;;;;;5005366;28;20584;-72
2023/02/13 01:38:58;;;;;;;6.60;4.47;;;0.80;93.00;;;;;;5003845;28;20185;-72
2023/02/13 01:41:26;;;;;;;11.23;5.07;;;0.80;93.20;;;;;;5005472;28;20189;-72
2023/02/13 01:43:55;;;;;;;5.77;4.33;;;0.90;93.10;;;;;;5004895;28;20181;-73
2023/02/13 01:46:26;;;;;;;6.03;5.07;;;0.90;93.30;;;;;;5008872;28;20188;-72
2023/02/13 01:48:55;;;;;;;7.70;3.43;;;0.90;92.80;;;;;;5010807;28;20315;-72
2023/02/13 01:51:28;;;;;;;10.23;4.03;;;0.90;92.70;;;;;;5009033;28;20631;-71
2023/02/13 01:53:59;;;;;;;7.13;4.67;;;1.00;92.70;;;;;;5016499;28;20185;-73
2023/02/13 01:56:28;;;;;;;10.70;3.50;;;1.00;92.20;;;;;;5006079;28;20185;-71
2023/02/13 01:59:04;;;;;;;4.60;4.20;;;1.00;92.30;;;;;;4964128;28;1172088;-71
2023/02/13 02:01:31;;;;;;;5.07;3.17;;;1.00;92.20;;;;;;5009894;28;20567;-72
2023/02/13 02:04:04;;;;;;;7.53;4.20;;;1.10;92.30;;;;;;5006587;28;20192;-72
2023/02/13 02:06:34;;;;;;;6.13;3.97;;;1.00;92.60;;;;;;5009770;28;20176;-73
2023/02/13 02:09:06;;;;;;;8.13;4.53;;;1.00;92.40;;;;;;5008118;28;20189;-72
2023/02/13 02:11:58;;;;;;;4.53;4.13;;;1.10;92.40;;;;;;5006286;28;20185;-73
2023/02/13 02:14:25;;;;;;;5.87;3.50;;;1.10;92.00;;;;;;5009286;28;20189;-72
2023/02/13 02:16:52;;;;;;;6.43;4.40;;;1.10;92.00;;;;;;4997156;28;20173;-73
2023/02/13 02:19:55;;;;;;;6.13;4.80;;;1.10;92.10;;;;;;5007115;28;20181;-72
2023/02/13 02:22:24;;;;;;;4.67;3.40;;;1.10;92.20;;;;;;5011979;28;20551;-72
2023/02/13 02:25:14;;;;;;;6.43;4.50;;;1.10;92.60;;;;;;5006050;28;20200;-72
2023/02/13 02:28:11;;;;;;;5.80;3.57;;;1.00;92.60;;;;;;5006061;28;20184;-72
2023/02/13 02:30:54;;;;;;;4.43;3.73;;;1.00;93.00;;;;;;4945892;28;20817;-72
2023/02/13 02:33:43;;;;;;;7.33;3.93;;;1.00;92.90;;;;;;4941141;28;20270;-72
2023/02/13 02:36:42;;;;;;;8.27;3.63;;;0.90;93.00;;;;;;4944646;28;20779;-72
2023/02/13 02:39:44;;;;;;;5.13;3.77;;;1.00;92.90;;;;;;4941643;28;20301;-73
2023/02/13 02:42:12;;;;;;;5.67;3.40;;;0.90;93.20;;;;;;4869004;29;21024;-72
2023/02/13 02:45:02;;;;;;;8.13;4.60;;;0.90;93.10;;;;;;4869133;29;20202;-73
2023/02/13 02:51:06;;;;;;;4.80;3.73;;;0.80;93.40;;;;;;4867304;29;20255;-73
2023/02/13 02:57:23;;;;;;;3.77;2.87;;;0.70;93.20;;;;;;4746593;30;20209;-72
2023/02/13 03:13:17;;;;;;;4.90;2.83;;;0.70;93.40;;;;;;4784568;29;20263;-72
2023/02/13 03:13:49;;;;;;;5.93;3.07;;;0.70;93.50;;;;;;4794850;29;20295;-72
2023/02/13 03:22:20;;;;;;;2.80;2.60;;;0.80;93.60;;;;;;4868919;29;20853;-72
2023/02/13 03:25:04;;;;;;;6.90;4.33;;;0.80;93.50;;;;;;4867599;29;20185;-72
2023/02/13 03:30:16;;;;;;;6.53;4.03;;;0.80;93.20;;;;;;4905982;29;20311;-72
2023/02/13 03:32:48;;;;;;;5.53;3.20;;;0.90;93.40;;;;;;4935929;28;20204;-72
2023/02/13 03:38:23;;;;;;;5.87;3.13;;;0.80;93.40;;;;;;4998969;28;20295;-72
2023/02/13 03:43:46;;;;;;;8.33;5.07;;;0.80;93.70;;;;;;5005545;28;20859;-72
2023/02/13 03:46:13;;;;;;;7.47;2.77;;;0.80;93.20;;;;;;5006748;28;20647;-72
2023/02/13 03:51:28;;;;;;;5.10;4.03;;;0.90;92.60;;;;;;5004320;28;20279;-72
2023/02/13 03:53:58;;;;;;;6.50;4.13;;;0.70;93.10;;;;;;5013837;28;20177;-72
2023/02/13 03:59:24;;;;;;;2.90;2.70;;;0.70;93.30;;;;;;5006798;28;20450;-73
2023/02/13 04:02:09;;;;;;;9.90;3.70;;;0.70;93.40;;;;;;5003290;28;20218;-72
2023/02/13 04:04:58;;;;;;;6.37;3.43;;;0.70;93.40;;;;;;5028950;28;20211;-72
2023/02/13 04:07:32;;;;;;;7.03;4.17;;;0.80;93.10;;;;;;5004738;28;20275;-73
2023/02/13 04:10:05;;;;;;;12.27;5.53;;;0.80;92.90;;;;;;5002600;28;20216;-74
2023/02/13 04:12:53;;;;;;;5.50;3.73;;;0.80;92.90;;;;;;5005092;28;20185;-72
2023/02/13 04:15:21;;;;;;;4.20;2.90;;;0.90;92.50;;;;;;5004568;28;20545;-72
2023/02/13 04:18:02;;;;;;;11.67;5.03;;;0.90;92.40;;;;;;5004846;28;20181;-72
2023/02/13 04:20:29;;;;;;;4.10;3.23;;;0.90;92.20;;;;;;5035449;28;20231;-72
2023/02/13 04:22:55;;;;;;;5.93;3.60;;;0.90;92.20;;;;;;5013690;28;20253;-72
2023/02/13 04:25:21;;;;;;;5.47;3.77;;;0.90;92.30;;;;;;5008034;28;20690;-72
2023/02/13 04:27:47;;;;;;;8.67;4.87;;;0.80;92.40;;;;;;5017647;28;20804;-72
2023/02/13 04:30:13;;;;;;;5.07;2.93;;;0.80;92.60;;;;;;5007580;28;20220;-73
2023/02/13 04:32:38;;;;;;;6.27;3.83;;;0.70;92.80;;;;;;5004411;28;20188;-73
2023/02/13 04:35:04;;;;;;;11.43;4.53;;;0.70;93.10;;;;;;5003126;28;20628;-73
2023/02/13 04:37:30;;;;;;;6.00;3.50;;;0.70;93.10;;;;;;5005908;28;20208;-72
2023/02/13 04:39:56;;;;;;;6.23;4.03;;;0.70;93.10;;;;;;5006303;28;20203;-73
2023/02/13 04:42:21;;;;;;;2.70;2.50;;;0.80;93.10;;;;;;5003394;28;20183;-73
2023/02/13 04:44:47;;;;;;;8.27;3.57;;;0.80;93.00;;;;;;5002979;28;20212;-73
2023/02/13 04:47:12;;;;;;;3.30;3.00;;;0.90;92.80;;;;;;5003246;28;20189;-72
2023/02/13 04:49:38;;;;;;;3.53;3.20;;;0.90;93.00;;;;;;5003506;28;20240;-73
2023/02/13 04:52:04;;;;;;;9.97;4.30;;;0.90;93.10;;;;;;5003754;28;20268;-73
2023/02/13 04:54:29;;;;;;;6.53;5.13;;;0.90;93.20;;;;;;5007358;28;20189;-72
2023/02/13 04:56:55;;;;;;;9.13;4.70;;;0.90;93.20;;;;;;5006878;28;20185;-73
2023/02/13 04:59:21;;;;;;;7.33;5.23;;;1.00;93.20;;;;;;5007118;28;20271;-72
2023/02/13 05:01:46;;;;;;;10.23;5.70;;;1.00;93.10;;;;;;5008120;28;21023;-73
2023/02/13 05:04:15;;;;;;;5.70;5.20;;;1.10;92.90;;;;;;5007744;28;20707;-72
2023/02/13 05:06:41;;;;;;;9.07;5.17;;;1.10;92.80;;;;;;5006642;28;20882;-72
2023/02/13 05:09:06;;;;;;;7.10;4.60;;;1.10;92.80;;;;;;5006128;28;20661;-75
2023/02/13 05:11:32;;;;;;;12.93;5.00;;;1.20;92.70;;;;;;5010738;28;20221;-75
2023/02/13 05:13:58;;;;;;;5.57;4.03;;;1.20;92.40;;;;;;5010985;28;20609;-75
2023/02/13 05:16:23;;;;;;;9.30;4.37;;;1.20;92.30;;;;;;5014895;28;20800;-75
2023/02/13 05:18:53;;;;;;;10.70;5.40;;;1.20;92.20;;;;;;5006439;28;20173;-75
2023/02/13 05:24:06;;;;;;;5.00;4.47;;;1.20;92.00;;;;;;5008093;28;20807;-77
2023/02/13 05:26:32;;;;;;;5.53;4.50;;;1.30;91.60;;;;;;5014594;28;20184;-75
2023/02/13 05:31:41;;;;;;;6.93;4.77;;;1.20;91.20;;;;;;5008839;28;20207;-74
2023/02/13 05:34:07;;;;;;;8.57;4.67;;;1.20;90.60;;;;;;5005138;28;20189;-74
2023/02/13 05:36:33;;;;;;;10.37;5.40;;;1.20;90.50;;;;;;5005530;28;20194;-75
2023/02/13 05:38:59;;;;;;;10.80;6.17;;;1.20;90.00;;;;;;5008206;28;20295;-73
2023/02/13 05:41:25;;;;;;;9.90;5.63;;;1.20;90.30;;;;;;5007811;28;20224;-71
2023/02/13 05:43:51;;;;;;;8.33;5.50;;;1.10;90.40;;;;;;5007374;28;20694;-77
2023/02/13 05:46:17;;;;;;;6.80;5.20;;;1.10;90.20;;;;;;5006090;28;20242;-77
2023/02/13 05:48:42;;;;;;;7.50;5.63;;;1.10;90.20;;;;;;5007660;28;20689;-76
2023/02/13 05:51:08;;;;;;;8.53;5.27;;;1.10;90.30;;;;;;5007363;28;20216;-76
2023/02/13 05:53:34;;;;;;;9.33;6.60;;;1.10;90.30;;;;;;5006991;28;20180;-78
2023/02/13 05:56:01;;;;;;;9.23;5.77;;;1.00;90.40;;;;;;5009680;28;20877;-76
2023/02/13 05:58:27;;;;;;;9.47;6.43;;;1.00;90.50;;;;;;5016933;28;20263;-75
2023/02/13 06:00:57;;;;;;;12.20;5.40;;;1.10;90.50;;;;;;5015642;28;20204;-76
2023/02/13 06:03:23;;;;;;;7.97;5.23;;;1.10;90.50;;;;;;5004277;28;20181;-72
2023/02/13 06:05:49;;;;;;;6.33;4.60;;;1.10;90.60;;;;;;5005186;28;20268;-73
2023/02/13 06:08:14;;;;;;;9.83;6.47;;;1.10;90.60;;;;;;5005427;28;20322;-73
2023/02/13 06:10:40;;;;;;;11.37;6.97;;;1.20;90.40;;;;;;5006664;28;20225;-71
2023/02/13 06:13:06;;;;;;;11.63;5.67;;;1.20;90.00;;;;;;5006741;28;20165;-73
2023/02/13 06:15:31;;;;;;;9.40;6.47;;;1.20;89.90;;;;;;5003027;28;20557;-73
2023/02/13 06:17:57;;;;;;;10.77;6.73;;;1.20;89.90;;;;;;5005850;28;20268;-72
2023/02/13 06:20:23;;;;;;;6.97;6.27;;;1.30;89.80;;;;;;5007622;28;20184;-72
2023/02/13 06:22:52;;;;;;;6.47;4.60;;;1.30;89.80;;;;;;5006828;28;20280;-71
2023/02/13 06:25:18;;;;;;;14.30;7.07;;;1.30;89.90;;;;;;5005876;28;20185;-74
2023/02/13 06:27:44;;;;;;;8.87;5.60;;;1.40;89.90;;;;;;5006620;28;20181;-73
2023/02/13 06:30:11;;;;;;;7.80;5.57;;;1.40;89.80;;;;;;5006529;28;20212;-72
2023/02/13 06:32:36;;;;;;;12.77;5.40;;;1.50;89.70;;;;;;5005115;28;20222;-72
2023/02/13 06:35:02;;;;;;;11.37;7.13;;;1.50;89.70;;;;;;5005909;28;20991;-73
2023/02/13 06:37:28;;;;;;;5.93;4.47;;;1.60;89.30;;;;;;5006984;28;20215;-73
2023/02/13 06:39:53;;;;;;;9.33;4.70;;;1.60;88.40;;;;;;5006993;28;20208;-72
2023/02/13 06:42:19;;;;;;;11.00;5.10;;;1.70;88.10;;;;;;5006143;28;20184;-72
2023/02/13 06:44:45;;;;;;;10.00;6.43;;;1.60;88.20;;;;;;5006663;28;20181;-72
2023/02/13 06:47:10;;;;;;;14.07;6.60;;;1.70;88.00;;;;;;5006962;28;20177;-73
2023/02/13 06:49:36;;;;;;;20.47;6.97;;;1.70;88.10;;;;;;5006193;28;20272;-73
2023/02/13 06:52:02;;;;;;;12.83;7.13;;;1.80;87.70;;;;;;5005729;28;20173;-73
2023/02/13 06:54:27;;;;;;;10.80;5.30;;;1.80;87.80;;;;;;5014865;28;20176;-72
2023/02/13 06:56:53;;;;;;;15.57;7.00;;;1.80;87.90;;;;;;5007945;28;20276;-73
2023/02/13 06:59:19;;;;;;;11.67;5.67;;;1.90;87.80;;;;;;5005610;28;20193;-73
2023/02/13 07:01:44;;;;;;;9.53;5.47;;;1.90;87.90;;;;;;5005472;28;20196;-73
2023/02/13 07:04:10;;;;;;;14.30;6.83;;;2.00;87.70;;;;;;5014446;28;20263;-73
2023/02/13 07:06:35;;;;;;;13.87;6.23;;;2.00;87.70;;;;;;4996268;28;20180;-74
2023/02/13 07:09:03;;;;;;;12.73;6.57;;;2.10;86.50;;;;;;5005388;28;20185;-74
2023/02/13 07:11:29;;;;;;;11.57;5.57;;;2.10;87.10;;;;;;5005858;28;20251;-73
2023/02/13 07:13:54;;;;;;;6.63;5.37;;;2.20;87.20;;;;;;4995658;28;20182;-72
2023/02/13 07:16:20;;;;;;;10.70;6.53;;;2.20;87.20;;;;;;5001616;28;20177;-72
2023/02/13 07:18:45;;;;;;;12.33;6.80;;;2.30;87.10;;;;;;5014804;28;20237;-72
2023/02/13 07:21:11;;;;;;;10.20;5.90;;;2.30;87.00;;;;;;5023955;28;20185;-73
2023/02/13 07:23:37;;;;;;;9.97;5.93;;;2.40;87.30;;;;;;5015629;28;20181;-72
2023/02/13 07:26:03;;;;;;;12.10;6.97;;;2.50;86.90;;;;;;5004859;28;20957;-72
2023/02/13 07:28:29;;;;;;;10.73;6.73;;;2.60;86.70;;;;;;5000544;28;20176;-73
2023/02/13 07:30:55;;;;;;;10.07;7.43;;;2.70;86.40;;;;;;5001309;28;20219;-73
2023/02/13 07:33:21;;;;;;;10.40;6.47;;;2.80;85.70;;;;;;5005193;28;20789;-73
2023/02/13 07:35:49;;;;;;;9.00;6.07;;;2.80;85.60;;;;;;5020407;28;20185;-73
2023/02/13 07:38:15;;;;;;;10.30;6.20;;;2.90;86.00;;;;;;5015419;28;20169;-74
2023/02/13 07:40:41;;;;;;;9.50;5.87;;;3.00;85.90;;;;;;5004861;28;20195;-73
2023/02/13 07:43:07;;;;;;;12.57;7.23;;;3.00;85.10;;;;;;5015003;28;20195;-72
2023/02/13 07:45:32;;;;;;;10.40;4.67;;;3.10;85.30;;;;;;4998477;28;20211;-73
2023/02/13 07:48:01;;;;;;;10.20;5.73;;;3.20;85.20;;;;;;5023746;28;20242;-72
2023/02/13 07:50:26;;;;;;;8.37;6.03;;;3.20;85.40;;;;;;5019503;28;20259;-73
2023/02/13 07:52:57;;;;;;;15.37;7.87;;;3.30;84.20;;;;;;5004930;28;20185;-73
2023/02/13 07:55:22;;;;;;;14.33;6.07;;;3.40;84.40;;;;;;5017587;28;20181;-72
2023/02/13 07:57:48;;;;;;;15.33;8.00;;;3.40;84.20;;;;;;5004441;28;20276;-72
2023/02/13 08:00:15;;;;;;;15.03;7.60;;;3.50;83.40;;;;;;5004022;28;20254;-72
2023/02/13 08:02:40;;;;;;;11.93;7.03;;;3.50;83.40;;;;;;5004727;28;20243;-72
2023/02/13 08:05:07;;;;;;;12.57;7.43;;;3.50;83.00;;;;;;5005164;28;20181;-73
2023/02/13 08:07:33;;;;;;;7.30;6.33;;;3.50;83.60;;;;;;5004092;28;20177;-73
2023/02/13 08:12:44;;;;;;;10.60;6.07;;;3.70;83.10;;;;;;5005245;28;20183;-72
2023/02/13 08:15:12;;;;;;;11.27;6.07;;;3.70;83.20;;;;;;5004023;28;20193;-72
2023/02/13 08:17:37;;;;;;;18.47;7.53;;;3.70;82.50;;;;;;5019478;28;20184;-73
2023/02/13 08:20:07;;;;;;;11.60;6.57;;;3.80;82.60;;;;;;5003072;28;20181;-73
2023/02/13 08:22:32;;;;;;;11.73;7.70;;;3.80;82.70;;;;;;5004317;28;20177;-73
2023/02/13 08:24:58;;;;;;;11.43;7.10;;;3.90;82.40;;;;;;4991811;28;20255;-72
2023/02/13 08:27:24;;;;;;;15.80;8.87;;;3.90;82.00;;;;;;5004081;28;20205;-73
2023/02/13 08:29:50;;;;;;;14.13;6.23;;;3.90;82.00;;;;;;5008453;28;20656;-72
2023/02/13 08:32:16;;;;;;;11.57;6.33;;;3.90;81.90;;;;;;5008876;28;20173;-72
2023/02/13 08:34:42;;;;;;;11.20;6.63;;;3.90;81.10;;;;;;4996104;28;20247;-72
2023/02/13 08:37:08;;;;;;;8.83;5.00;;;3.90;81.50;;;;;;5005070;28;20182;-72
2023/02/13 08:39:33;;;;;;;12.63;6.97;;;3.90;81.00;;;;;;5008348;28;20562;-72
2023/02/13 08:41:59;;;;;;;11.00;5.43;;;3.90;81.40;;;;;;5008724;28;20191;-72
2023/02/13 08:44:25;;;;;;;13.20;6.90;;;3.90;81.40;;;;;;5008540;28;20200;-72
2023/02/13 08:46:50;;;;;;;11.30;6.07;;;3.90;81.40;;;;;;5008206;28;20177;-73
2023/02/13 08:49:16;;;;;;;8.57;5.07;;;3.80;81.20;;;;;;5006394;28;20212;-74
2023/02/13 08:51:42;;;;;;;8.53;6.17;;;3.80;81.70;;;;;;5007752;28;21166;-71
2023/02/13 08:54:07;;;;;;;15.87;6.83;;;3.80;81.70;;;;;;5013721;28;20176;-74
2023/02/13 08:56:34;;;;;;;13.60;7.13;;;3.90;81.70;;;;;;5013506;28;20205;-73
2023/02/13 08:58:59;;;;;;;11.90;6.03;;;4.00;81.00;;;;;;5005668;28;20964;-74
2023/02/13 09:01:25;;;;;;;11.70;6.47;;;3.90;81.20;;;;;;5007351;28;20235;-74
2023/02/13 09:03:51;;;;;;;11.73;5.83;;;3.90;81.10;;;;;;5005081;28;20173;-74
2023/02/13 09:06:17;;;;;;;9.17;6.73;;;3.90;81.70;;;;;;5005685;28;20180;-73
2023/02/13 09:08:43;;;;;;;11.63;6.77;;;3.90;81.30;;;;;;5006203;28;20264;-74
2023/02/13 09:11:09;;;;;;;12.10;6.57;;;3.90;81.60;;;;;;5007568;28;20296;-73
2023/02/13 09:13:36;;;;;;;9.30;5.63;;;3.90;81.20;;;;;;5007711;28;20177;-73
2023/02/13 09:16:04;;;;;;;14.90;7.33;;;3.90;81.40;;;;;;5008221;28;20211;-74
2023/02/13 09:18:30;;;;;;;10.03;5.23;;;4.00;81.10;;;;;;5007435;28;20184;-74
2023/02/13 09:21:01;;;;;;;7.97;5.23;;;3.90;81.00;;;;;;5008186;28;20239;-73
2023/02/13 09:23:29;;;;;;;9.93;5.13;;;3.90;81.10;;;;;;5007343;28;20201;-74
2023/02/13 09:25:58;;;;;;;10.33;5.87;;;4.00;81.60;;;;;;5007032;28;20681;-74
2023/02/13 09:28:24;;;;;;;11.37;5.83;;;4.20;81.60;;;;;;5007300;28;20192;-74
2023/02/13 09:30:49;;;;;;;18.07;6.73;;;4.30;81.10;;;;;;5008561;28;20595;-73
2023/02/13 09:33:15;;;;;;;13.17;5.87;;;4.50;80.80;;;;;;5007637;28;20287;-74
2023/02/13 09:35:42;;;;;;;13.67;7.10;;;4.60;80.60;;;;;;5009748;28;20192;-73
2023/02/13 09:38:08;;;;;;;15.13;6.17;;;4.70;79.90;;;;;;5007346;28;20196;-73
2023/02/13 09:40:52;;;;;;;7.47;5.27;;;4.90;79.60;;;;;;5006905;28;20554;-72
2023/02/13 09:43:34;;;;;;;10.50;6.57;;;5.00;79.30;;;;;;5007221;28;20205;-73
2023/02/13 09:46:07;;;;;;;13.73;7.23;;;5.20;78.70;;;;;;4996617;28;20185;-74
2023/02/13 09:48:36;;;;;;;12.27;5.80;;;5.40;78.70;;;;;;5006884;28;20184;-73
2023/02/13 09:51:04;;;;;;;14.07;7.33;;;5.60;78.50;;;;;;5007915;28;20267;-73
2023/02/13 09:53:32;;;;;;;11.87;5.93;;;5.70;77.50;;;;;;5006688;28;20220;-74
2023/02/13 09:56:14;;;;;;;13.37;7.53;;;5.80;76.90;;;;;;5005301;28;20275;-73
2023/02/13 09:58:47;;;;;;;10.23;6.40;;;6.00;76.80;;;;;;5006864;28;20201;-73
2023/02/13 10:01:33;;;;;;;16.33;7.43;;;6.00;75.90;;;;;;5006732;28;20254;-73
2023/02/13 10:04:22;;;;;;;11.70;6.83;;;6.00;76.30;;;;;;5006621;28;20334;-73
2023/02/13 10:07:14;;;;;;;13.90;6.40;;;6.30;75.90;;;;;;5005783;28;20587;-73
2023/02/13 10:10:00;;;;;;;12.47;6.60;;;6.80;75.70;;;;;;5000796;28;20264;-73
2023/02/13 10:12:28;;;;;;;12.50;6.80;;;7.90;73.40;;;;;;4999247;28;20671;-73
2023/02/13 10:14:54;;;;;;;16.47;6.93;;;8.90;71.60;;;;;;5006585;28;20256;-73
2023/02/13 10:17:28;;;;;;;16.63;7.27;;;10.00;70.70;;;;;;5006366;28;20255;-73
2023/02/13 10:20:00;;;;;;;18.10;8.83;;;11.10;67.40;;;;;;5006995;28;20168;-72
2023/02/13 10:22:47;;;;;;;15.60;8.65;;;11.80;65.20;;;;;;5012766;28;20186;-73
2023/02/13 10:25:39;;;;;;;17.35;8.90;;;12.30;63.70;;;;;;4994789;28;20180;-74
2023/02/13 10:28:12;;;;;;;21.20;9.50;;;12.70;62.60;;;;;;4994137;28;20189;-73
2023/02/13 10:30:54;;;;;;;22.30;9.15;;;13.10;62.40;;;;;;4990690;28;20221;-77
2023/02/13 10:33:51;;;;;;;15.95;8.93;;;13.30;61.00;;;;;;4983978;28;20642;-74
2023/02/13 10:36:24;;;;;;;19.17;10.25;;;13.80;61.80;;;;;;4987296;28;20204;-74
2023/02/13 10:38:59;;;;;;;21.17;10.43;;;14.20;58.20;;;;;;4985055;28;20201;-73
2023/02/13 10:41:46;;;;;;;19.13;10.40;;;14.00;59.20;;;;;;4983280;28;20276;-75
2023/02/13 10:44:14;;;;;;;21.10;10.30;;;14.50;60.80;;;;;;4984063;28;20180;-74
2023/02/13 10:47:07;;;;;;;19.50;10.48;;;15.40;59.80;;;;;;4988461;28;20632;-74
2023/02/13 10:50:00;;;;;;;17.73;9.80;;;16.60;56.20;;;;;;4983254;28;20196;-74
2023/02/13 10:52:32;;;;;;;17.70;9.70;;;17.70;54.50;;;;;;4983880;28;20189;-73
2023/02/13 10:55:18;;;;;;;15.52;8.98;;;18.10;53.50;;;;;;4983217;28;20275;-74
2023/02/13 10:58:11;;;;;;;19.98;10.10;;;18.30;52.60;;;;;;4980440;28;20759;-74
2023/02/13 11:00:54;;;;;;;19.75;10.40;;;18.60;52.10;;;;;;4983279;28;20204;-73
2023/02/13 11:03:25;;;;;;;18.23;10.77;;;19.00;51.60;;;;;;4989306;28;20199;-74
2023/02/13 11:05:52;;;;;;;20.75;10.57;;;19.30;51.30;;;;;;5008190;28;20682;-74
2023/02/13 11:08:23;;;;;;;19.67;10.60;;;19.60;50.00;;;;;;5000877;28;20181;-74
2023/02/13 11:10:50;;;;;;;20.33;11.20;;;19.60;49.50;;;;;;5003747;28;20212;-73
2023/02/13 11:13:22;;;;;;;16.75;10.43;;;19.80;49.50;;;;;;5009690;28;20276;-74
2023/02/13 11:16:02;;;;;;;17.08;10.05;;;19.70;49.50;;;;;;5003728;28;20184;-74
2023/02/13 11:18:33;;;;;;;16.45;9.95;;;19.00;49.40;;;;;;5002201;28;20267;-74
2023/02/13 11:21:11;;;;;;;19.40;10.80;;;18.20;49.90;;;;;;5001542;28;20184;-74
2023/02/13 11:23:42;;;;;;;20.08;11.25;;;17.40;50.90;;;;;;5003941;28;20944;-74
2023/02/13 11:26:13;;;;;;;17.45;10.63;;;17.00;52.00;;;;;;5003365;28;20370;-74
2023/02/13 11:28:49;;;;;;;17.85;10.38;;;16.90;52.20;;;;;;5004822;28;20188;-73
2023/02/13 11:31:27;;;;;;;15.90;9.65;;;17.20;53.10;;;;;;5004145;28;20216;-73
2023/02/13 11:33:53;;;;;;;19.23;9.45;;;17.80;52.90;;;;;;5004233;28;20691;-74
2023/02/13 11:36:32;;;;;;;19.25;10.30;;;18.70;50.70;;;;;;5004293;28;20192;-74
2023/02/13 11:39:16;;;;;;;17.05;10.20;;;19.50;51.30;;;;;;5003979;28;20184;-74
2023/02/13 11:41:43;;;;;;;29.65;11.18;;;20.30;49.40;;;;;;5004581;28;20181;-74
2023/02/13 11:44:31;;;;;;;16.30;10.10;;;21.00;49.10;;;;;;5007636;28;20180;-74
2023/02/13 11:46:59;;;;;;;17.63;10.32;;;21.50;47.60;;;;;;4999055;28;20207;-74
2023/02/13 11:49:29;;;;;;;14.43;8.95;;;21.90;46.50;;;;;;5006402;28;20180;-73
2023/02/13 11:51:57;;;;;;;16.15;9.52;;;21.90;45.20;;;;;;4998470;28;20197;-74
2023/02/13 11:54:33;;;;;;;15.98;9.70;;;21.50;46.50;;;;;;5002634;28;20185;-74
2023/02/13 11:57:21;;;;;;;13.85;8.50;;;21.30;45.80;;;;;;5001986;28;20612;-74
2023/02/13 11:59:49;;;;;;;13.73;8.85;;;21.20;46.80;;;;;;4994532;28;20275;-75
2023/02/13 12:02:25;;;;;;;17.00;9.27;;;20.20;45.60;;;;;;5004059;28;20176;-75
2023/02/13 12:05:13;;;;;;;17.67;9.10;;;19.50;47.90;;;;;;5006871;28;20684;-76
2023/02/13 12:07:40;;;;;;;14.68;8.25;;;18.90;48.70;;;;;;5005834;28;20197;-76
2023/02/13 12:10:17;;;;;;;14.40;8.88;;;18.60;49.20;;;;;;5007551;28;20201;-76
2023/02/13 12:12:50;;;;;;;14.40;8.00;;;18.60;48.50;;;;;;5001546;28;20219;-75
2023/02/13 12:15:29;;;;;;;12.35;7.20;;;18.70;48.90;;;;;;5017551;28;20618;-75
2023/02/13 12:18:18;;;;;;;16.00;7.63;;;18.80;47.80;;;;;;5003703;28;20232;-74
2023/02/13 14:32:40;;;;;;;8.48;5.03;;;15.50;50.70;;;;;;5008156;28;20763;-74
2023/02/13 14:35:19;;;;;;;7.05;5.00;;;15.30;50.60;;;;;;5005781;28;20193;-74
2023/02/13 14:37:57;;;;;;;7.50;5.10;;;15.10;50.60;;;;;;5006424;28;20177;-74
2023/02/13 14:40:22;;;;;;;8.52;5.88;;;14.90;51.40;;;;;;5006021;28;20323;-74
2023/02/13 14:43:14;;;;;;;6.65;4.90;;;14.70;51.40;;;;;;5006754;28;20264;-74
2023/02/13 14:46:02;;;;;;;7.13;5.22;;;14.50;52.00;;;;;;5004107;28;20193;-74
2023/02/13 14:48:44;;;;;;;6.95;5.35;;;14.20;51.80;;;;;;5003959;28;20189;-75
2023/02/13 14:51:27;;;;;;;6.68;4.85;;;13.80;52.50;;;;;;5006393;28;20204;-74
2023/02/13 14:54:03;;;;;;;7.43;4.57;;;13.40;53.10;;;;;;5004926;28;20279;-74
2023/02/13 14:56:30;;;;;;;6.25;4.95;;;13.00;53.30;;;;;;5005141;28;20239;-74
2023/02/13 14:59:16;;;;;;;6.78;4.72;;;12.50;54.50;;;;;;5005223;28;20193;-73
2023/02/13 15:01:52;;;;;;;7.63;4.43;;;12.20;54.90;;;;;;5003393;28;20213;-75
2023/02/13 15:04:21;;;;;;;6.75;4.53;;;12.00;55.60;;;;;;5006265;28;20184;-77
2023/02/13 15:06:48;;;;;;;6.68;4.75;;;11.80;56.10;;;;;;5004432;28;20173;-79
2023/02/13 15:09:38;;;;;;;5.55;4.28;;;11.60;57.00;;;;;;5005974;28;20184;-77
2023/02/13 15:12:33;;;;;;;5.28;3.55;;;11.40;56.80;;;;;;5004566;28;20307;-76
2023/02/13 15:15:04;;;;;;;4.82;3.90;;;11.20;57.20;;;;;;5003314;28;20177;-76
2023/02/13 15:17:39;;;;;;;7.47;4.57;;;11.00;57.60;;;;;;4993580;28;20866;-76
2023/02/13 15:20:11;;;;;;;9.98;4.15;;;10.90;58.30;;;;;;5005687;28;20193;-76
2023/02/13 15:22:40;;;;;;;5.60;4.10;;;10.80;57.80;;;;;;5015285;28;20605;-76
2023/02/13 15:25:39;;;;;;;5.40;3.67;;;10.70;57.90;;;;;;5005274;28;20173;-77
2023/02/13 15:28:07;;;;;;;4.68;3.53;;;10.40;58.50;;;;;;4992496;28;20914;-77
2023/02/13 15:30:35;;;;;;;8.93;4.07;;;10.20;59.10;;;;;;5006282;28;20189;-74
2023/02/13 15:33:17;;;;;;;5.80;4.00;;;10.10;58.80;;;;;;5002625;28;20189;-73
2023/02/13 15:35:43;;;;;;;6.07;3.55;;;9.80;59.50;;;;;;5001066;28;20185;-73
2023/02/13 15:38:30;;;;;;;9.07;4.68;;;9.70;59.70;;;;;;5004707;28;20586;-74
2023/02/13 15:41:01;;;;;;;4.53;3.72;;;9.40;60.60;;;;;;5000627;28;20659;-74
2023/02/13 15:43:31;;;;;;;4.95;3.75;;;9.10;61.10;;;;;;5003293;28;20212;-73
2023/02/13 15:46:02;;;;;;;3.47;3.17;;;8.70;62.10;;;;;;5004411;28;20185;-75
2023/02/13 15:48:30;;;;;;;5.53;3.25;;;8.50;61.90;;;;;;5002991;28;20704;-75
2023/02/13 15:50:57;;;;;;;4.95;3.75;;;8.30;62.60;;;;;;5003877;28;20212;-75
2023/02/13 15:53:22;;;;;;;5.97;4.03;;;8.10;63.10;;;;;;5004430;28;20185;-75
2023/02/13 15:56:00;;;;;;;7.05;4.35;;;7.80;63.60;;;;;;5002296;28;20196;-75
2023/02/13 15:58:31;;;;;;;4.68;3.70;;;7.70;63.60;;;;;;5004367;28;20224;-74
2023/02/13 16:01:05;;;;;;;4.00;3.27;;;7.50;64.00;;;;;;5003356;28;20185;-74
2023/02/13 16:03:33;;;;;;;10.93;4.07;;;7.30;64.60;;;;;;5004114;28;20589;-75
2023/02/13 16:05:59;;;;;;;5.23;4.10;;;7.20;64.80;;;;;;5003374;28;20173;-74
2023/02/13 16:08:37;;;;;;;3.47;3.13;;;7.00;65.30;;;;;;5005195;28;20180;-76